Labarre, Louisiana
Current Conditions -  °F | °C
As of 3:15 AM on Thursday 23 Oct 2014 (Local Time) from KHZR Reporting Station
Clear Clear  
Wind Chill: 56°   Ceiling: Unl
Heat Index: 56°   Visibility: 10mi
Dew Point: 48°   Wind: 6mph
Humidity: 76%   Direction: 50°NE
Pressure: 30.09"   Gusts: NA
Location:  30.71°N, 91.55°W
Report Text: KHZR 230815Z AUTO 05005KT 10SM CLR 13/09 A3009 RMK AO2 T01310090
Loading
Personal Weather Stations






























Interactive Weather Map
Tropical Storm Tracking
New forecast layout! Learn more

10-Day Weather Forecast

Advertisements
Track Severe Weather on mobile